sensor_id;sensor_type;location;lat;lon;timestamp;P1;durP1;ratioP1;P2;durP2;ratioP2
13832;SDS011;6987;19.472;-99.276;2022-11-20T00:01:28;5.20;;;4.15;;
13832;SDS011;6987;19.472;-99.276;2022-11-20T00:03:57;3.85;;;3.28;;
13832;SDS011;6987;19.472;-99.276;2022-11-20T00:06:27;4.78;;;3.38;;
13832;SDS011;6987;19.472;-99.276;2022-11-20T00:08:56;3.22;;;2.90;;
13832;SDS011;6987;19.472;-99.276;2022-11-20T00:11:27;5.45;;;3.92;;
13832;SDS011;6987;19.472;-99.276;2022-11-20T00:13:57;4.38;;;4.00;;
13832;SDS011;6987;19.472;-99.276;2022-11-20T00:16:28;4.60;;;4.20;;
13832;SDS011;6987;19.472;-99.276;2022-11-20T00:18:58;5.80;;;4.63;;
13832;SDS011;6987;19.472;-99.276;2022-11-20T00:21:27;4.50;;;4.10;;
13832;SDS011;6987;19.472;-99.276;2022-11-20T00:23:57;4.68;;;4.35;;
13832;SDS011;6987;19.472;-99.276;2022-11-20T00:26:28;11.32;;;5.07;;
13832;SDS011;6987;19.472;-99.276;2022-11-20T00:28:58;4.80;;;4.32;;
13832;SDS011;6987;19.472;-99.276;2022-11-20T00:31:27;6.03;;;4.93;;
13832;SDS011;6987;19.472;-99.276;2022-11-20T00:33:58;5.20;;;4.70;;
13832;SDS011;6987;19.472;-99.276;2022-11-20T00:36:27;5.55;;;5.05;;
13832;SDS011;6987;19.472;-99.276;2022-11-20T00:38:57;5.80;;;5.30;;
13832;SDS011;6987;19.472;-99.276;2022-11-20T00:41:28;8.10;;;5.85;;
13832;SDS011;6987;19.472;-99.276;2022-11-20T00:43:57;6.28;;;5.68;;
13832;SDS011;6987;19.472;-99.276;2022-11-20T00:46:27;6.30;;;5.70;;
13832;SDS011;6987;19.472;-99.276;2022-11-20T00:48:56;6.75;;;5.35;;
13832;SDS011;6987;19.472;-99.276;2022-11-20T00:51:25;10.77;;;6.03;;
13832;SDS011;6987;19.472;-99.276;2022-11-20T00:53:56;9.05;;;5.47;;
13832;SDS011;6987;19.472;-99.276;2022-11-20T00:56:25;6.82;;;6.13;;
13832;SDS011;6987;19.472;-99.276;2022-11-20T00:58:58;6.43;;;5.82;;
13832;SDS011;6987;19.472;-99.276;2022-11-20T01:01:27;9.98;;;6.45;;
13832;SDS011;6987;19.472;-99.276;2022-11-20T01:03:57;16.35;;;7.72;;
13832;SDS011;6987;19.472;-99.276;2022-11-20T01:06:27;13.73;;;8.32;;
13832;SDS011;6987;19.472;-99.276;2022-11-20T01:08:56;13.38;;;8.07;;
13832;SDS011;6987;19.472;-99.276;2022-11-20T01:11:26;10.77;;;8.38;;
13832;SDS011;6987;19.472;-99.276;2022-11-20T01:13:57;11.77;;;8.10;;
13832;SDS011;6987;19.472;-99.276;2022-11-20T01:16:27;17.30;;;10.98;;
13832;SDS011;6987;19.472;-99.276;2022-11-20T01:18:57;11.80;;;10.57;;
13832;SDS011;6987;19.472;-99.276;2022-11-20T01:21:27;12.73;;;11.35;;
13832;SDS011;6987;19.472;-99.276;2022-11-20T01:23:57;15.57;;;11.80;;
13832;SDS011;6987;19.472;-99.276;2022-11-20T01:26:27;14.75;;;11.57;;
13832;SDS011;6987;19.472;-99.276;2022-11-20T01:28:58;15.00;;;12.48;;
13832;SDS011;6987;19.472;-99.276;2022-11-20T01:31:27;14.13;;;12.38;;
13832;SDS011;6987;19.472;-99.276;2022-11-20T01:33:57;15.02;;;13.18;;
13832;SDS011;6987;19.472;-99.276;2022-11-20T01:36:26;13.32;;;11.93;;
13832;SDS011;6987;19.472;-99.276;2022-11-20T01:38:55;18.35;;;11.55;;
13832;SDS011;6987;19.472;-99.276;2022-11-20T01:41:24;11.77;;;10.57;;
13832;SDS011;6987;19.472;-99.276;2022-11-20T01:44:12;13.20;;;11.90;;
13832;SDS011;6987;19.472;-99.276;2022-11-20T01:46:53;13.73;;;10.77;;
13832;SDS011;6987;19.472;-99.276;2022-11-20T01:49:25;14.77;;;12.32;;
13832;SDS011;6987;19.472;-99.276;2022-11-20T01:51:55;11.80;;;10.40;;
13832;SDS011;6987;19.472;-99.276;2022-11-20T01:54:27;12.68;;;10.10;;
13832;SDS011;6987;19.472;-99.276;2022-11-20T01:56:58;12.50;;;11.20;;
13832;SDS011;6987;19.472;-99.276;2022-11-20T01:59:31;15.40;;;11.15;;
13832;SDS011;6987;19.472;-99.276;2022-11-20T02:02:00;14.68;;;11.18;;
13832;SDS011;6987;19.472;-99.276;2022-11-20T02:04:29;13.07;;;11.68;;
13832;SDS011;6987;19.472;-99.276;2022-11-20T02:06:59;15.02;;;11.57;;
13832;SDS011;6987;19.472;-99.276;2022-11-20T02:09:28;17.02;;;11.75;;
13832;SDS011;6987;19.472;-99.276;2022-11-20T02:11:57;14.13;;;11.65;;
13832;SDS011;6987;19.472;-99.276;2022-11-20T02:14:26;14.73;;;12.38;;
13832;SDS011;6987;19.472;-99.276;2022-11-20T02:16:56;14.23;;;11.93;;
13832;SDS011;6987;19.472;-99.276;2022-11-20T02:19:27;15.02;;;11.93;;
13832;SDS011;6987;19.472;-99.276;2022-11-20T02:21:58;15.07;;;11.15;;
13832;SDS011;6987;19.472;-99.276;2022-11-20T02:24:30;15.70;;;11.50;;
13832;SDS011;6987;19.472;-99.276;2022-11-20T02:27:00;13.75;;;11.32;;
13832;SDS011;6987;19.472;-99.276;2022-11-20T02:29:31;14.63;;;12.13;;
13832;SDS011;6987;19.472;-99.276;2022-11-20T02:32:01;12.93;;;11.25;;
13832;SDS011;6987;19.472;-99.276;2022-11-20T02:34:31;11.82;;;10.38;;
13832;SDS011;6987;19.472;-99.276;2022-11-20T02:37:00;12.35;;;10.80;;
13832;SDS011;6987;19.472;-99.276;2022-11-20T02:39:30;11.25;;;10.25;;
13832;SDS011;6987;19.472;-99.276;2022-11-20T02:42:00;12.10;;;10.25;;
13832;SDS011;6987;19.472;-99.276;2022-11-20T02:44:30;11.20;;;10.10;;
13832;SDS011;6987;19.472;-99.276;2022-11-20T02:46:58;10.80;;;9.70;;
13832;SDS011;6987;19.472;-99.276;2022-11-20T02:49:27;10.43;;;9.25;;
13832;SDS011;6987;19.472;-99.276;2022-11-20T02:51:56;10.90;;;8.93;;
13832;SDS011;6987;19.472;-99.276;2022-11-20T02:54:25;11.10;;;10.02;;
13832;SDS011;6987;19.472;-99.276;2022-11-20T02:56:55;11.23;;;9.98;;
13832;SDS011;6987;19.472;-99.276;2022-11-20T02:59:25;10.45;;;9.38;;
13832;SDS011;6987;19.472;-99.276;2022-11-20T03:01:53;12.75;;;9.60;;
13832;SDS011;6987;19.472;-99.276;2022-11-20T03:04:22;13.43;;;9.57;;
13832;SDS011;6987;19.472;-99.276;2022-11-20T03:06:51;10.32;;;9.30;;
13832;SDS011;6987;19.472;-99.276;2022-11-20T03:09:20;10.50;;;9.45;;
13832;SDS011;6987;19.472;-99.276;2022-11-20T03:11:50;12.20;;;10.38;;
13832;SDS011;6987;19.472;-99.276;2022-11-20T03:14:22;10.07;;;9.18;;
13832;SDS011;6987;19.472;-99.276;2022-11-20T03:16:50;9.82;;;8.93;;
13832;SDS011;6987;19.472;-99.276;2022-11-20T03:19:20;11.65;;;10.45;;
13832;SDS011;6987;19.472;-99.276;2022-11-20T03:21:49;12.25;;;10.52;;
13832;SDS011;6987;19.472;-99.276;2022-11-20T03:24:18;14.10;;;10.38;;
13832;SDS011;6987;19.472;-99.276;2022-11-20T03:26:47;13.50;;;10.63;;
13832;SDS011;6987;19.472;-99.276;2022-11-20T03:29:15;13.20;;;11.88;;
13832;SDS011;6987;19.472;-99.276;2022-11-20T03:31:46;13.55;;;10.75;;
13832;SDS011;6987;19.472;-99.276;2022-11-20T03:34:15;14.82;;;11.32;;
13832;SDS011;6987;19.472;-99.276;2022-11-20T03:36:44;17.30;;;10.82;;
13832;SDS011;6987;19.472;-99.276;2022-11-20T03:39:13;13.80;;;12.23;;
13832;SDS011;6987;19.472;-99.276;2022-11-20T03:41:42;12.95;;;11.75;;
13832;SDS011;6987;19.472;-99.276;2022-11-20T03:44:11;17.77;;;11.90;;
13832;SDS011;6987;19.472;-99.276;2022-11-20T03:46:40;11.70;;;10.52;;
13832;SDS011;6987;19.472;-99.276;2022-11-20T03:49:10;13.40;;;11.57;;
13832;SDS011;6987;19.472;-99.276;2022-11-20T03:51:39;12.75;;;11.45;;
13832;SDS011;6987;19.472;-99.276;2022-11-20T03:54:08;14.35;;;11.63;;
13832;SDS011;6987;19.472;-99.276;2022-11-20T03:56:38;13.77;;;11.57;;
13832;SDS011;6987;19.472;-99.276;2022-11-20T03:59:09;12.48;;;11.35;;
13832;SDS011;6987;19.472;-99.276;2022-11-20T04:01:38;12.27;;;11.15;;
13832;SDS011;6987;19.472;-99.276;2022-11-20T04:04:07;11.98;;;10.48;;
13832;SDS011;6987;19.472;-99.276;2022-11-20T04:06:38;9.88;;;8.93;;
13832;SDS011;6987;19.472;-99.276;2022-11-20T04:09:07;11.77;;;9.63;;
13832;SDS011;6987;19.472;-99.276;2022-11-20T04:11:39;10.80;;;9.10;;
13832;SDS011;6987;19.472;-99.276;2022-11-20T04:14:11;10.38;;;9.48;;
13832;SDS011;6987;19.472;-99.276;2022-11-20T04:16:41;9.15;;;8.25;;
13832;SDS011;6987;19.472;-99.276;2022-11-20T04:19:10;9.80;;;8.57;;
13832;SDS011;6987;19.472;-99.276;2022-11-20T04:21:41;9.50;;;8.55;;
13832;SDS011;6987;19.472;-99.276;2022-11-20T04:24:10;10.38;;;8.57;;
13832;SDS011;6987;19.472;-99.276;2022-11-20T04:26:39;9.75;;;8.75;;
13832;SDS011;6987;19.472;-99.276;2022-11-20T04:29:10;8.85;;;8.00;;
13832;SDS011;6987;19.472;-99.276;2022-11-20T04:31:40;9.48;;;8.52;;
13832;SDS011;6987;19.472;-99.276;2022-11-20T04:34:10;12.45;;;9.32;;
13832;SDS011;6987;19.472;-99.276;2022-11-20T04:36:41;9.82;;;8.93;;
13832;SDS011;6987;19.472;-99.276;2022-11-20T04:39:13;9.15;;;8.35;;
13832;SDS011;6987;19.472;-99.276;2022-11-20T04:41:43;11.32;;;9.60;;
13832;SDS011;6987;19.472;-99.276;2022-11-20T04:44:12;10.95;;;9.38;;
13832;SDS011;6987;19.472;-99.276;2022-11-20T04:46:41;11.32;;;9.90;;
13832;SDS011;6987;19.472;-99.276;2022-11-20T04:49:10;10.52;;;9.50;;
13832;SDS011;6987;19.472;-99.276;2022-11-20T04:51:41;10.35;;;9.38;;
13832;SDS011;6987;19.472;-99.276;2022-11-20T04:54:10;10.30;;;9.32;;
13832;SDS011;6987;19.472;-99.276;2022-11-20T04:56:39;9.43;;;8.60;;
13832;SDS011;6987;19.472;-99.276;2022-11-20T04:59:09;9.40;;;8.60;;
13832;SDS011;6987;19.472;-99.276;2022-11-20T05:01:38;11.18;;;9.30;;
13832;SDS011;6987;19.472;-99.276;2022-11-20T05:04:07;13.00;;;9.38;;
13832;SDS011;6987;19.472;-99.276;2022-11-20T05:06:36;9.23;;;8.48;;
13832;SDS011;6987;19.472;-99.276;2022-11-20T05:09:07;10.63;;;9.52;;
13832;SDS011;6987;19.472;-99.276;2022-11-20T05:11:36;9.85;;;8.95;;
13832;SDS011;6987;19.472;-99.276;2022-11-20T05:14:05;9.65;;;8.80;;
13832;SDS011;6987;19.472;-99.276;2022-11-20T05:16:34;10.23;;;9.40;;
13832;SDS011;6987;19.472;-99.276;2022-11-20T05:19:03;10.38;;;9.32;;
13832;SDS011;6987;19.472;-99.276;2022-11-20T05:21:33;12.32;;;10.02;;
13832;SDS011;6987;19.472;-99.276;2022-11-20T05:24:01;10.20;;;9.13;;
13832;SDS011;6987;19.472;-99.276;2022-11-20T05:26:32;9.13;;;8.23;;
13832;SDS011;6987;19.472;-99.276;2022-11-20T05:29:01;9.13;;;8.35;;
13832;SDS011;6987;19.472;-99.276;2022-11-20T05:31:30;10.27;;;9.27;;
13832;SDS011;6987;19.472;-99.276;2022-11-20T05:33:59;12.55;;;9.60;;
13832;SDS011;6987;19.472;-99.276;2022-11-20T05:36:28;9.93;;;9.05;;
13832;SDS011;6987;19.472;-99.276;2022-11-20T05:39:00;9.57;;;8.68;;
13832;SDS011;6987;19.472;-99.276;2022-11-20T05:41:29;9.98;;;8.98;;
13832;SDS011;6987;19.472;-99.276;2022-11-20T05:44:00;9.00;;;8.15;;
13832;SDS011;6987;19.472;-99.276;2022-11-20T05:46:29;10.13;;;9.07;;
13832;SDS011;6987;19.472;-99.276;2022-11-20T05:48:58;9.63;;;8.70;;
13832;SDS011;6987;19.472;-99.276;2022-11-20T05:51:27;10.25;;;8.85;;
13832;SDS011;6987;19.472;-99.276;2022-11-20T05:53:56;9.15;;;8.35;;
13832;SDS011;6987;19.472;-99.276;2022-11-20T05:56:25;9.93;;;8.98;;
13832;SDS011;6987;19.472;-99.276;2022-11-20T05:58:54;9.88;;;8.15;;
13832;SDS011;6987;19.472;-99.276;2022-11-20T06:01:26;9.45;;;8.43;;
13832;SDS011;6987;19.472;-99.276;2022-11-20T06:03:55;11.48;;;8.75;;
13832;SDS011;6987;19.472;-99.276;2022-11-20T06:06:24;10.00;;;7.82;;
13832;SDS011;6987;19.472;-99.276;2022-11-20T06:08:53;10.02;;;8.82;;
13832;SDS011;6987;19.472;-99.276;2022-11-20T06:11:24;8.18;;;7.45;;
13832;SDS011;6987;19.472;-99.276;2022-11-20T06:13:53;9.45;;;8.55;;
13832;SDS011;6987;19.472;-99.276;2022-11-20T06:16:22;9.05;;;8.25;;
13832;SDS011;6987;19.472;-99.276;2022-11-20T06:18:52;9.88;;;9.05;;
13832;SDS011;6987;19.472;-99.276;2022-11-20T06:21:21;11.00;;;8.63;;
13832;SDS011;6987;19.472;-99.276;2022-11-20T06:23:51;10.02;;;9.05;;
13832;SDS011;6987;19.472;-99.276;2022-11-20T06:26:22;10.05;;;9.05;;
13832;SDS011;6987;19.472;-99.276;2022-11-20T06:28:51;9.65;;;8.85;;
13832;SDS011;6987;19.472;-99.276;2022-11-20T06:31:22;9.98;;;8.98;;
13832;SDS011;6987;19.472;-99.276;2022-11-20T06:33:53;10.98;;;9.80;;
13832;SDS011;6987;19.472;-99.276;2022-11-20T06:36:22;10.13;;;9.05;;
13832;SDS011;6987;19.472;-99.276;2022-11-20T06:38:51;9.60;;;8.57;;
13832;SDS011;6987;19.472;-99.276;2022-11-20T06:41:21;10.48;;;9.57;;
13832;SDS011;6987;19.472;-99.276;2022-11-20T06:43:50;10.48;;;9.48;;
13832;SDS011;6987;19.472;-99.276;2022-11-20T06:46:20;10.10;;;8.65;;
13832;SDS011;6987;19.472;-99.276;2022-11-20T06:48:51;10.65;;;9.00;;
13832;SDS011;6987;19.472;-99.276;2022-11-20T06:51:22;10.40;;;9.27;;
13832;SDS011;6987;19.472;-99.276;2022-11-20T06:53:51;10.68;;;8.82;;
13832;SDS011;6987;19.472;-99.276;2022-11-20T06:56:20;9.35;;;8.45;;
13832;SDS011;6987;19.472;-99.276;2022-11-20T06:58:49;11.13;;;8.73;;
13832;SDS011;6987;19.472;-99.276;2022-11-20T07:01:17;9.50;;;8.60;;
13832;SDS011;6987;19.472;-99.276;2022-11-20T07:03:48;9.90;;;9.00;;
13832;SDS011;6987;19.472;-99.276;2022-11-20T07:06:18;9.80;;;8.57;;
13832;SDS011;6987;19.472;-99.276;2022-11-20T07:08:49;9.82;;;8.80;;
13832;SDS011;6987;19.472;-99.276;2022-11-20T07:11:19;11.15;;;9.50;;
13832;SDS011;6987;19.472;-99.276;2022-11-20T07:13:49;12.52;;;8.35;;
13832;SDS011;6987;19.472;-99.276;2022-11-20T07:16:18;10.45;;;9.30;;
13832;SDS011;6987;19.472;-99.276;2022-11-20T07:18:46;11.95;;;9.63;;
13832;SDS011;6987;19.472;-99.276;2022-11-20T07:21:16;10.90;;;9.57;;
13832;SDS011;6987;19.472;-99.276;2022-11-20T07:23:45;10.18;;;9.18;;
13832;SDS011;6987;19.472;-99.276;2022-11-20T07:26:16;9.77;;;8.77;;
13832;SDS011;6987;19.472;-99.276;2022-11-20T07:28:47;9.73;;;8.82;;
13832;SDS011;6987;19.472;-99.276;2022-11-20T07:31:16;9.98;;;8.98;;
13832;SDS011;6987;19.472;-99.276;2022-11-20T07:33:45;10.38;;;9.30;;
13832;SDS011;6987;19.472;-99.276;2022-11-20T07:36:15;9.75;;;8.75;;
13832;SDS011;6987;19.472;-99.276;2022-11-20T07:38:43;9.38;;;8.48;;
13832;SDS011;6987;19.472;-99.276;2022-11-20T07:41:12;9.98;;;9.00;;
13832;SDS011;6987;19.472;-99.276;2022-11-20T07:43:43;10.80;;;8.45;;
13832;SDS011;6987;19.472;-99.276;2022-11-20T07:46:12;11.63;;;8.85;;
13832;SDS011;6987;19.472;-99.276;2022-11-20T07:48:41;9.77;;;7.43;;
13832;SDS011;6987;19.472;-99.276;2022-11-20T07:51:10;9.00;;;8.10;;
13832;SDS011;6987;19.472;-99.276;2022-11-20T07:53:39;8.98;;;8.18;;
13832;SDS011;6987;19.472;-99.276;2022-11-20T07:56:08;9.70;;;8.32;;
13832;SDS011;6987;19.472;-99.276;2022-11-20T07:58:36;11.07;;;8.77;;
13832;SDS011;6987;19.472;-99.276;2022-11-20T08:01:07;8.43;;;7.63;;
13832;SDS011;6987;19.472;-99.276;2022-11-20T08:03:36;9.32;;;8.40;;
13832;SDS011;6987;19.472;-99.276;2022-11-20T08:06:05;11.27;;;8.10;;
13832;SDS011;6987;19.472;-99.276;2022-11-20T08:08:34;10.55;;;8.07;;
13832;SDS011;6987;19.472;-99.276;2022-11-20T08:11:05;9.35;;;8.60;;
13832;SDS011;6987;19.472;-99.276;2022-11-20T08:13:50;11.48;;;8.88;;
13832;SDS011;6987;19.472;-99.276;2022-11-20T08:16:38;13.20;;;8.55;;
13832;SDS011;6987;19.472;-99.276;2022-11-20T08:19:07;11.20;;;9.32;;
13832;SDS011;6987;19.472;-99.276;2022-11-20T08:21:36;8.05;;;7.35;;
13832;SDS011;6987;19.472;-99.276;2022-11-20T08:24:05;10.45;;;8.75;;
13832;SDS011;6987;19.472;-99.276;2022-11-20T08:26:34;8.80;;;8.00;;
13832;SDS011;6987;19.472;-99.276;2022-11-20T08:29:03;9.10;;;8.18;;
13832;SDS011;6987;19.472;-99.276;2022-11-20T08:31:33;9.32;;;8.52;;
13832;SDS011;6987;19.472;-99.276;2022-11-20T08:34:03;10.23;;;8.73;;
13832;SDS011;6987;19.472;-99.276;2022-11-20T08:36:32;9.25;;;8.45;;
13832;SDS011;6987;19.472;-99.276;2022-11-20T08:39:01;8.95;;;8.15;;
13832;SDS011;6987;19.472;-99.276;2022-11-20T08:41:30;10.50;;;8.02;;
13832;SDS011;6987;19.472;-99.276;2022-11-20T08:43:59;13.98;;;7.60;;
13832;SDS011;6987;19.472;-99.276;2022-11-20T08:46:31;8.68;;;7.75;;
13832;SDS011;6987;19.472;-99.276;2022-11-20T08:49:01;9.07;;;8.15;;
13832;SDS011;6987;19.472;-99.276;2022-11-20T08:51:31;9.43;;;8.45;;
13832;SDS011;6987;19.472;-99.276;2022-11-20T08:54:01;10.35;;;7.50;;
13832;SDS011;6987;19.472;-99.276;2022-11-20T08:56:30;9.02;;;8.05;;
13832;SDS011;6987;19.472;-99.276;2022-11-20T08:58:59;10.23;;;9.15;;
13832;SDS011;6987;19.472;-99.276;2022-11-20T09:01:28;13.35;;;8.18;;
13832;SDS011;6987;19.472;-99.276;2022-11-20T09:03:57;8.98;;;8.23;;
13832;SDS011;6987;19.472;-99.276;2022-11-20T09:06:26;8.77;;;7.88;;
13832;SDS011;6987;19.472;-99.276;2022-11-20T09:08:57;8.75;;;7.85;;
13832;SDS011;6987;19.472;-99.276;2022-11-20T09:11:26;8.85;;;7.95;;
13832;SDS011;6987;19.472;-99.276;2022-11-20T09:13:56;9.60;;;8.27;;
13832;SDS011;6987;19.472;-99.276;2022-11-20T09:16:24;8.82;;;7.78;;
13832;SDS011;6987;19.472;-99.276;2022-11-20T09:18:54;9.18;;;8.23;;
13832;SDS011;6987;19.472;-99.276;2022-11-20T09:21:22;8.48;;;7.70;;
13832;SDS011;6987;19.472;-99.276;2022-11-20T09:23:52;10.05;;;7.60;;
13832;SDS011;6987;19.472;-99.276;2022-11-20T09:26:22;9.95;;;8.65;;
13832;SDS011;6987;19.472;-99.276;2022-11-20T09:28:51;9.57;;;7.68;;
13832;SDS011;6987;19.472;-99.276;2022-11-20T09:31:22;8.38;;;7.57;;
13832;SDS011;6987;19.472;-99.276;2022-11-20T09:33:51;8.27;;;7.38;;
13832;SDS011;6987;19.472;-99.276;2022-11-20T09:36:21;7.93;;;7.13;;
13832;SDS011;6987;19.472;-99.276;2022-11-20T09:38:49;7.80;;;7.10;;
13832;SDS011;6987;19.472;-99.276;2022-11-20T09:44:12;13.27;;;7.72;;
13832;SDS011;6987;19.472;-99.276;2022-11-20T09:46:48;7.63;;;6.95;;
13832;SDS011;6987;19.472;-99.276;2022-11-20T09:49:23;8.82;;;7.93;;
13832;SDS011;6987;19.472;-99.276;2022-11-20T09:51:53;8.70;;;7.40;;
13832;SDS011;6987;19.472;-99.276;2022-11-20T09:54:27;8.27;;;7.47;;
13832;SDS011;6987;19.472;-99.276;2022-11-20T09:56:59;8.40;;;7.63;;
13832;SDS011;6987;19.472;-99.276;2022-11-20T09:59:38;12.90;;;8.10;;
13832;SDS011;6987;19.472;-99.276;2022-11-20T10:02:14;8.63;;;7.57;;
13832;SDS011;6987;19.472;-99.276;2022-11-20T10:04:44;9.95;;;8.20;;
13832;SDS011;6987;19.472;-99.276;2022-11-20T10:07:17;8.90;;;8.00;;
13832;SDS011;6987;19.472;-99.276;2022-11-20T10:09:50;8.05;;;7.32;;
13832;SDS011;6987;19.472;-99.276;2022-11-20T10:12:21;8.10;;;7.30;;
13832;SDS011;6987;19.472;-99.276;2022-11-20T10:15:00;9.60;;;7.50;;
13832;SDS011;6987;19.472;-99.276;2022-11-20T10:17:41;8.68;;;7.88;;
13832;SDS011;6987;19.472;-99.276;2022-11-20T10:20:18;8.35;;;7.28;;
13832;SDS011;6987;19.472;-99.276;2022-11-20T10:22:57;8.18;;;7.35;;
13832;SDS011;6987;19.472;-99.276;2022-11-20T10:25:33;7.88;;;7.07;;
13832;SDS011;6987;19.472;-99.276;2022-11-20T10:28:21;8.27;;;7.47;;
13832;SDS011;6987;19.472;-99.276;2022-11-20T10:30:55;8.43;;;7.65;;
13832;SDS011;6987;19.472;-99.276;2022-11-20T10:33:25;9.95;;;7.05;;
13832;SDS011;6987;19.472;-99.276;2022-11-20T10:35:58;7.70;;;6.93;;
13832;SDS011;6987;19.472;-99.276;2022-11-20T10:38:29;7.82;;;6.95;;
13832;SDS011;6987;19.472;-99.276;2022-11-20T10:41:01;8.82;;;7.60;;
13832;SDS011;6987;19.472;-99.276;2022-11-20T10:43:43;8.40;;;7.45;;
13832;SDS011;6987;19.472;-99.276;2022-11-20T10:46:15;8.98;;;8.07;;
13832;SDS011;6987;19.472;-99.276;2022-11-20T10:48:45;10.70;;;8.02;;
13832;SDS011;6987;19.472;-99.276;2022-11-20T10:51:20;8.75;;;7.60;;
13832;SDS011;6987;19.472;-99.276;2022-11-20T10:53:57;7.40;;;6.65;;
13832;SDS011;6987;19.472;-99.276;2022-11-20T10:56:30;7.45;;;6.82;;
13832;SDS011;6987;19.472;-99.276;2022-11-20T10:59:08;7.50;;;6.80;;
13832;SDS011;6987;19.472;-99.276;2022-11-20T11:01:42;8.27;;;7.10;;
13832;SDS011;6987;19.472;-99.276;2022-11-20T11:04:15;11.07;;;7.78;;
13832;SDS011;6987;19.472;-99.276;2022-11-20T11:06:47;8.10;;;7.32;;
13832;SDS011;6987;19.472;-99.276;2022-11-20T11:09:17;7.50;;;6.80;;
13832;SDS011;6987;19.472;-99.276;2022-11-20T11:11:49;8.30;;;7.50;;
13832;SDS011;6987;19.472;-99.276;2022-11-20T11:14:18;7.75;;;7.07;;
13832;SDS011;6987;19.472;-99.276;2022-11-20T11:16:52;11.45;;;6.47;;
13832;SDS011;6987;19.472;-99.276;2022-11-20T11:19:21;8.15;;;7.43;;
13832;SDS011;6987;19.472;-99.276;2022-11-20T11:21:51;8.23;;;7.20;;
13832;SDS011;6987;19.472;-99.276;2022-11-20T11:24:21;8.90;;;7.55;;
13832;SDS011;6987;19.472;-99.276;2022-11-20T11:26:55;10.13;;;7.75;;
13832;SDS011;6987;19.472;-99.276;2022-11-20T11:29:24;11.02;;;7.45;;
13832;SDS011;6987;19.472;-99.276;2022-11-20T11:32:05;8.07;;;6.85;;
13832;SDS011;6987;19.472;-99.276;2022-11-20T11:34:34;8.70;;;7.90;;
13832;SDS011;6987;19.472;-99.276;2022-11-20T11:37:04;8.23;;;7.47;;
13832;SDS011;6987;19.472;-99.276;2022-11-20T11:39:33;10.13;;;7.70;;
13832;SDS011;6987;19.472;-99.276;2022-11-20T11:42:03;8.20;;;7.40;;
13832;SDS011;6987;19.472;-99.276;2022-11-20T11:44:32;9.90;;;7.70;;
13832;SDS011;6987;19.472;-99.276;2022-11-20T11:47:21;7.95;;;7.25;;
13832;SDS011;6987;19.472;-99.276;2022-11-20T11:50:00;9.18;;;7.93;;
13832;SDS011;6987;19.472;-99.276;2022-11-20T11:52:30;9.05;;;8.25;;
13832;SDS011;6987;19.472;-99.276;2022-11-20T11:55:00;8.52;;;7.68;;
13832;SDS011;6987;19.472;-99.276;2022-11-20T11:57:33;9.77;;;8.60;;
13832;SDS011;6987;19.472;-99.276;2022-11-20T12:00:09;11.70;;;8.88;;
13832;SDS011;6987;19.472;-99.276;2022-11-20T12:02:42;8.85;;;8.05;;
13832;SDS011;6987;19.472;-99.276;2022-11-20T12:05:18;8.68;;;7.85;;
13832;SDS011;6987;19.472;-99.276;2022-11-20T12:07:47;10.38;;;9.02;;
13832;SDS011;6987;19.472;-99.276;2022-11-20T12:10:20;9.32;;;8.48;;
13832;SDS011;6987;19.472;-99.276;2022-11-20T12:12:53;11.75;;;8.45;;
13832;SDS011;6987;19.472;-99.276;2022-11-20T12:15:28;9.40;;;8.32;;
13832;SDS011;6987;19.472;-99.276;2022-11-20T12:17:59;8.80;;;8.00;;
13832;SDS011;6987;19.472;-99.276;2022-11-20T12:20:30;11.52;;;8.95;;
13832;SDS011;6987;19.472;-99.276;2022-11-20T12:23:03;11.27;;;8.23;;
13832;SDS011;6987;19.472;-99.276;2022-11-20T12:25:35;9.32;;;8.43;;
13832;SDS011;6987;19.472;-99.276;2022-11-20T12:30:55;12.18;;;8.75;;
13832;SDS011;6987;19.472;-99.276;2022-11-20T12:33:35;9.82;;;8.82;;
13832;SDS011;6987;19.472;-99.276;2022-11-20T12:36:07;9.30;;;8.25;;
13832;SDS011;6987;19.472;-99.276;2022-11-20T12:44:57;9.63;;;8.20;;
13832;SDS011;6987;19.472;-99.276;2022-11-20T12:47:53;10.20;;;9.13;;
13832;SDS011;6987;19.472;-99.276;2022-11-20T12:50:30;10.13;;;9.13;;
13832;SDS011;6987;19.472;-99.276;2022-11-20T12:53:01;9.98;;;8.98;;
13832;SDS011;6987;19.472;-99.276;2022-11-20T12:55:34;11.13;;;9.88;;
13832;SDS011;6987;19.472;-99.276;2022-11-20T12:58:08;16.10;;;10.10;;
13832;SDS011;6987;19.472;-99.276;2022-11-20T13:00:40;14.75;;;10.93;;
13832;SDS011;6987;19.472;-99.276;2022-11-20T13:06:02;17.58;;;14.13;;
13832;SDS011;6987;19.472;-99.276;2022-11-20T13:08:34;13.98;;;10.90;;
13832;SDS011;6987;19.472;-99.276;2022-11-20T13:11:07;15.15;;;12.32;;
13832;SDS011;6987;19.472;-99.276;2022-11-20T13:13:42;13.00;;;10.93;;
13832;SDS011;6987;19.472;-99.276;2022-11-20T13:16:12;18.75;;;11.18;;
13832;SDS011;6987;19.472;-99.276;2022-11-20T13:18:43;13.30;;;11.32;;
13832;SDS011;6987;19.472;-99.276;2022-11-20T13:21:15;20.25;;;14.23;;
13832;SDS011;6987;19.472;-99.276;2022-11-20T13:23:44;16.50;;;12.55;;
13832;SDS011;6987;19.472;-99.276;2022-11-20T13:26:15;14.80;;;12.85;;
13832;SDS011;6987;19.472;-99.276;2022-11-20T13:28:45;15.00;;;11.77;;
13832;SDS011;6987;19.472;-99.276;2022-11-20T13:31:31;18.05;;;11.85;;
13832;SDS011;6987;19.472;-99.276;2022-11-20T13:34:01;18.88;;;13.15;;
13832;SDS011;6987;19.472;-99.276;2022-11-20T13:36:32;17.40;;;13.75;;
13832;SDS011;6987;19.472;-99.276;2022-11-20T13:39:02;15.70;;;12.15;;
13832;SDS011;6987;19.472;-99.276;2022-11-20T13:41:32;17.73;;;13.73;;
13832;SDS011;6987;19.472;-99.276;2022-11-20T13:44:10;24.63;;;15.82;;
13832;SDS011;6987;19.472;-99.276;2022-11-20T13:46:40;19.88;;;15.73;;
13832;SDS011;6987;19.472;-99.276;2022-11-20T13:49:14;24.25;;;15.35;;
13832;SDS011;6987;19.472;-99.276;2022-11-20T13:51:46;24.08;;;15.30;;
13832;SDS011;6987;19.472;-99.276;2022-11-20T13:57:02;22.67;;;16.05;;
13832;SDS011;6987;19.472;-99.276;2022-11-20T13:59:40;22.10;;;16.52;;
13832;SDS011;6987;19.472;-99.276;2022-11-20T14:02:12;26.67;;;18.92;;
13832;SDS011;6987;19.472;-99.276;2022-11-20T14:04:42;21.85;;;16.50;;
13832;SDS011;6987;19.472;-99.276;2022-11-20T14:07:14;26.33;;;20.25;;
13832;SDS011;6987;19.472;-99.276;2022-11-20T14:09:49;23.20;;;18.88;;
13832;SDS011;6987;19.472;-99.276;2022-11-20T14:12:19;27.38;;;20.23;;
13832;SDS011;6987;19.472;-99.276;2022-11-20T14:14:49;30.55;;;22.83;;
13832;SDS011;6987;19.472;-99.276;2022-11-20T14:17:19;32.05;;;22.73;;
13832;SDS011;6987;19.472;-99.276;2022-11-20T14:19:49;26.52;;;22.35;;
13832;SDS011;6987;19.472;-99.276;2022-11-20T14:22:21;32.22;;;23.10;;
13832;SDS011;6987;19.472;-99.276;2022-11-20T14:25:00;26.60;;;22.25;;
13832;SDS011;6987;19.472;-99.276;2022-11-20T14:27:32;28.45;;;22.30;;
13832;SDS011;6987;19.472;-99.276;2022-11-20T14:30:02;29.15;;;21.35;;
13832;SDS011;6987;19.472;-99.276;2022-11-20T14:32:31;28.05;;;21.75;;
13832;SDS011;6987;19.472;-99.276;2022-11-20T14:35:02;28.85;;;20.85;;
13832;SDS011;6987;19.472;-99.276;2022-11-20T14:37:33;29.08;;;21.25;;
13832;SDS011;6987;19.472;-99.276;2022-11-20T14:40:02;25.10;;;20.88;;
13832;SDS011;6987;19.472;-99.276;2022-11-20T14:42:31;26.63;;;20.95;;
13832;SDS011;6987;19.472;-99.276;2022-11-20T14:45:00;26.25;;;19.50;;
13832;SDS011;6987;19.472;-99.276;2022-11-20T14:47:29;21.77;;;19.13;;
13832;SDS011;6987;19.472;-99.276;2022-11-20T14:49:59;25.65;;;19.77;;
13832;SDS011;6987;19.472;-99.276;2022-11-20T14:52:29;24.73;;;18.75;;
13832;SDS011;6987;19.472;-99.276;2022-11-20T14:55:00;27.05;;;19.95;;
13832;SDS011;6987;19.472;-99.276;2022-11-20T14:57:30;24.25;;;19.25;;
13832;SDS011;6987;19.472;-99.276;2022-11-20T15:00:06;23.85;;;19.15;;
13832;SDS011;6987;19.472;-99.276;2022-11-20T15:02:39;29.48;;;20.52;;